sensor_id;sensor_type;location;lat;lon;timestamp;pressure;altitude;pressure_sealevel;temperature;humidity
72024;BME280;59889;50.700;5.440;2022-09-02T00:00:14;100035.08;;;29.27;25.69
72024;BME280;59889;50.700;5.440;2022-09-02T00:02:39;100035.23;;;29.16;25.75
72024;BME280;59889;50.700;5.440;2022-09-02T00:05:05;100033.60;;;29.28;25.68
72024;BME280;59889;50.700;5.440;2022-09-02T00:07:31;100029.39;;;29.33;25.62
72024;BME280;59889;50.700;5.440;2022-09-02T00:09:56;100026.84;;;29.22;25.69
72024;BME280;59889;50.700;5.440;2022-09-02T00:12:22;100026.26;;;29.20;25.72
72024;BME280;59889;50.700;5.440;2022-09-02T00:14:49;100028.11;;;29.25;25.73
72024;BME280;59889;50.700;5.440;2022-09-02T00:17:14;100028.30;;;29.32;25.62
72024;BME280;59889;50.700;5.440;2022-09-02T00:19:40;100027.79;;;29.31;25.65
72024;BME280;59889;50.700;5.440;2022-09-02T00:22:06;100026.34;;;29.50;25.72
72024;BME280;59889;50.700;5.440;2022-09-02T00:24:31;100022.90;;;28.93;25.76
72024;BME280;59889;50.700;5.440;2022-09-02T00:26:57;100018.69;;;29.25;25.73
72024;BME280;59889;50.700;5.440;2022-09-02T00:29:24;100017.12;;;29.49;25.71
72024;BME280;59889;50.700;5.440;2022-09-02T00:31:49;100017.72;;;29.03;25.70
72024;BME280;59889;50.700;5.440;2022-09-02T00:34:15;100014.82;;;29.48;25.76
72024;BME280;59889;50.700;5.440;2022-09-02T00:36:41;100013.61;;;29.53;25.69
72024;BME280;59889;50.700;5.440;2022-09-02T00:39:07;100011.96;;;29.36;25.61
72024;BME280;59889;50.700;5.440;2022-09-02T00:41:33;100011.28;;;29.24;25.71
72024;BME280;59889;50.700;5.440;2022-09-02T00:44:00;100010.73;;;29.22;25.77
72024;BME280;59889;50.700;5.440;2022-09-02T00:46:27;100011.86;;;29.29;25.70
72024;BME280;59889;50.700;5.440;2022-09-02T00:48:55;100011.70;;;29.33;25.68
72024;BME280;59889;50.700;5.440;2022-09-02T00:51:16;100009.63;;;29.25;25.76
72024;BME280;59889;50.700;5.440;2022-09-02T00:53:43;100007.02;;;29.23;25.77
72024;BME280;59889;50.700;5.440;2022-09-02T00:56:10;100004.04;;;29.30;25.70
72024;BME280;59889;50.700;5.440;2022-09-02T00:58:33;100003.32;;;28.77;25.77
72024;BME280;59889;50.700;5.440;2022-09-02T01:00:58;100003.50;;;29.24;25.79
72024;BME280;59889;50.700;5.440;2022-09-02T01:03:24;100004.21;;;29.27;25.76
72024;BME280;59889;50.700;5.440;2022-09-02T01:05:50;100002.05;;;29.19;25.82
72024;BME280;59889;50.700;5.440;2022-09-02T01:08:16;99999.70;;;29.20;25.78
72024;BME280;59889;50.700;5.440;2022-09-02T01:10:38;99999.76;;;29.25;25.73
72024;BME280;59889;50.700;5.440;2022-09-02T01:13:06;99999.89;;;29.65;25.87
72024;BME280;59889;50.700;5.440;2022-09-02T01:15:30;100001.26;;;29.27;25.77
72024;BME280;59889;50.700;5.440;2022-09-02T01:17:54;99998.72;;;29.15;25.88
72024;BME280;59889;50.700;5.440;2022-09-02T01:20:23;99999.21;;;29.21;25.81
72024;BME280;59889;50.700;5.440;2022-09-02T01:22:46;99998.67;;;29.24;25.80
72024;BME280;59889;50.700;5.440;2022-09-02T01:25:14;99999.00;;;29.38;25.88
72024;BME280;59889;50.700;5.440;2022-09-02T01:27:38;99997.47;;;29.15;25.86
72024;BME280;59889;50.700;5.440;2022-09-02T01:30:06;99998.02;;;29.19;25.83
72024;BME280;59889;50.700;5.440;2022-09-02T01:32:30;99999.25;;;29.24;25.83
72024;BME280;59889;50.700;5.440;2022-09-02T01:34:55;99999.37;;;29.10;25.89
72024;BME280;59889;50.700;5.440;2022-09-02T01:37:21;99997.64;;;29.16;25.87
72024;BME280;59889;50.700;5.440;2022-09-02T01:39:48;99997.29;;;29.16;25.91
72024;BME280;59889;50.700;5.440;2022-09-02T01:42:13;99994.15;;;29.34;25.95
72024;BME280;59889;50.700;5.440;2022-09-02T01:44:39;99994.19;;;29.18;25.85
72024;BME280;59889;50.700;5.440;2022-09-02T01:47:05;99992.48;;;29.66;25.89
72024;BME280;59889;50.700;5.440;2022-09-02T01:49:30;99991.51;;;29.18;25.92
72024;BME280;59889;50.700;5.440;2022-09-02T01:51:56;99990.14;;;29.17;25.91
72024;BME280;59889;50.700;5.440;2022-09-02T01:54:22;99990.53;;;29.44;25.84
72024;BME280;59889;50.700;5.440;2022-09-02T01:56:48;99990.98;;;29.37;25.90
72024;BME280;59889;50.700;5.440;2022-09-02T01:59:14;99989.36;;;29.35;25.95
72024;BME280;59889;50.700;5.440;2022-09-02T02:01:40;99988.07;;;29.12;25.92
72024;BME280;59889;50.700;5.440;2022-09-02T02:04:05;99985.91;;;29.42;25.91
72024;BME280;59889;50.700;5.440;2022-09-02T02:06:31;99983.81;;;28.60;25.94
72024;BME280;59889;50.700;5.440;2022-09-02T02:08:57;99983.03;;;29.35;25.98
72024;BME280;59889;50.700;5.440;2022-09-02T02:11:24;99983.55;;;29.38;25.90
72024;BME280;59889;50.700;5.440;2022-09-02T02:13:49;99984.01;;;29.09;26.02
72024;BME280;59889;50.700;5.440;2022-09-02T02:16:15;99983.32;;;29.12;25.97
72024;BME280;59889;50.700;5.440;2022-09-02T02:18:41;99982.73;;;29.10;25.95
72024;BME280;59889;50.700;5.440;2022-09-02T02:21:07;99986.02;;;29.07;25.97
72024;BME280;59889;50.700;5.440;2022-09-02T02:23:33;99983.48;;;29.13;25.92
72024;BME280;59889;50.700;5.440;2022-09-02T02:25:58;99984.80;;;29.39;25.98
72024;BME280;59889;50.700;5.440;2022-09-02T02:28:24;99983.46;;;29.37;25.94
72024;BME280;59889;50.700;5.440;2022-09-02T02:30:50;99981.43;;;29.31;26.00
72024;BME280;59889;50.700;5.440;2022-09-02T02:33:16;99979.55;;;29.32;26.02
72024;BME280;59889;50.700;5.440;2022-09-02T02:35:42;99979.11;;;29.26;26.11
72024;BME280;59889;50.700;5.440;2022-09-02T02:38:07;99980.07;;;29.07;26.04
72024;BME280;59889;50.700;5.440;2022-09-02T02:40:33;99977.93;;;29.01;26.09
72024;BME280;59889;50.700;5.440;2022-09-02T02:42:59;99977.57;;;29.32;26.04
72024;BME280;59889;50.700;5.440;2022-09-02T02:45:25;99974.97;;;29.12;26.01
72024;BME280;59889;50.700;5.440;2022-09-02T02:47:52;99977.52;;;28.83;26.05
72024;BME280;59889;50.700;5.440;2022-09-02T02:50:19;99976.68;;;29.33;26.04
72024;BME280;59889;50.700;5.440;2022-09-02T02:52:43;99979.46;;;29.09;25.99
72024;BME280;59889;50.700;5.440;2022-09-02T02:55:10;99980.58;;;29.12;26.02
72024;BME280;59889;50.700;5.440;2022-09-02T02:57:33;99981.66;;;29.15;26.00
72024;BME280;59889;50.700;5.440;2022-09-02T03:00:03;99983.09;;;29.10;26.05
72024;BME280;59889;50.700;5.440;2022-09-02T03:02:24;99980.73;;;29.11;26.00
72024;BME280;59889;50.700;5.440;2022-09-02T03:04:50;99980.65;;;29.06;26.02
72024;BME280;59889;50.700;5.440;2022-09-02T03:07:16;99980.10;;;29.28;26.10
72024;BME280;59889;50.700;5.440;2022-09-02T03:09:42;99977.82;;;29.10;26.00
72024;BME280;59889;50.700;5.440;2022-09-02T03:12:08;99978.15;;;29.20;26.11
72024;BME280;59889;50.700;5.440;2022-09-02T03:14:34;99973.98;;;29.11;26.02
72024;BME280;59889;50.700;5.440;2022-09-02T03:16:59;99973.58;;;29.30;26.12
72024;BME280;59889;50.700;5.440;2022-09-02T03:19:25;99972.89;;;29.08;26.03
72024;BME280;59889;50.700;5.440;2022-09-02T03:21:51;99973.33;;;29.07;26.06
72024;BME280;59889;50.700;5.440;2022-09-02T03:24:17;99970.91;;;29.09;26.01
72024;BME280;59889;50.700;5.440;2022-09-02T03:26:43;99971.59;;;29.08;26.02
72024;BME280;59889;50.700;5.440;2022-09-02T03:29:09;99969.60;;;29.24;26.14
72024;BME280;59889;50.700;5.440;2022-09-02T03:31:34;99968.07;;;29.29;26.09
72024;BME280;59889;50.700;5.440;2022-09-02T03:34:01;99968.72;;;29.03;26.11
72024;BME280;59889;50.700;5.440;2022-09-02T03:36:28;99966.68;;;29.08;26.08
72024;BME280;59889;50.700;5.440;2022-09-02T03:38:51;99965.93;;;29.10;26.04
72024;BME280;59889;50.700;5.440;2022-09-02T03:41:16;99967.75;;;29.09;26.05
72024;BME280;59889;50.700;5.440;2022-09-02T03:43:42;99968.11;;;29.04;26.11
72024;BME280;59889;50.700;5.440;2022-09-02T03:46:08;99965.41;;;29.10;26.03
72024;BME280;59889;50.700;5.440;2022-09-02T03:48:34;99964.19;;;29.01;26.13
72024;BME280;59889;50.700;5.440;2022-09-02T03:51:00;99961.11;;;28.97;26.15
72024;BME280;59889;50.700;5.440;2022-09-02T03:53:25;99962.61;;;29.10;26.07
72024;BME280;59889;50.700;5.440;2022-09-02T03:55:51;99963.01;;;28.90;26.22
72024;BME280;59889;50.700;5.440;2022-09-02T03:58:18;99960.79;;;29.22;26.17
72024;BME280;59889;50.700;5.440;2022-09-02T04:00:43;99959.69;;;28.93;26.17
72024;BME280;59889;50.700;5.440;2022-09-02T04:03:09;99957.21;;;29.03;26.12
72024;BME280;59889;50.700;5.440;2022-09-02T04:05:34;99952.16;;;29.49;25.92
72024;BME280;59889;50.700;5.440;2022-09-02T04:08:01;99949.39;;;29.19;26.33
72024;BME280;59889;50.700;5.440;2022-09-02T04:10:27;99950.61;;;29.06;26.41
72024;BME280;59889;50.700;5.440;2022-09-02T04:12:52;99948.19;;;29.27;26.40
72024;BME280;59889;50.700;5.440;2022-09-02T04:15:18;99945.53;;;29.05;26.32
72024;BME280;59889;50.700;5.440;2022-09-02T04:17:44;99942.63;;;29.13;26.15
72024;BME280;59889;50.700;5.440;2022-09-02T04:20:11;99945.00;;;29.08;26.14
72024;BME280;59889;50.700;5.440;2022-09-02T04:22:34;99943.82;;;29.10;26.06
72024;BME280;59889;50.700;5.440;2022-09-02T04:24:59;99942.60;;;28.96;26.12
72024;BME280;59889;50.700;5.440;2022-09-02T04:27:24;99939.98;;;29.33;25.90
72024;BME280;59889;50.700;5.440;2022-09-02T04:29:49;99942.42;;;29.21;25.96
72024;BME280;59889;50.700;5.440;2022-09-02T04:32:14;99939.86;;;29.26;25.93
72024;BME280;59889;50.700;5.440;2022-09-02T04:34:39;99938.47;;;28.99;25.99
72024;BME280;59889;50.700;5.440;2022-09-02T04:37:05;99937.72;;;28.97;26.01
72024;BME280;59889;50.700;5.440;2022-09-02T04:39:29;99938.12;;;28.73;26.16
72024;BME280;59889;50.700;5.440;2022-09-02T04:41:54;99937.79;;;29.11;26.02
72024;BME280;59889;50.700;5.440;2022-09-02T04:44:19;99942.12;;;28.95;25.94
72024;BME280;59889;50.700;5.440;2022-09-02T04:46:44;99939.66;;;29.12;26.00
72024;BME280;59889;50.700;5.440;2022-09-02T04:49:09;99942.76;;;29.19;25.92
72024;BME280;59889;50.700;5.440;2022-09-02T04:51:34;99938.43;;;29.11;25.62
72024;BME280;59889;50.700;5.440;2022-09-02T04:54:00;99941.82;;;29.46;25.66
72024;BME280;59889;50.700;5.440;2022-09-02T04:56:27;99941.25;;;29.19;25.65
72024;BME280;59889;50.700;5.440;2022-09-02T04:58:49;99943.64;;;29.00;25.58
72024;BME280;59889;50.700;5.440;2022-09-02T05:01:16;99942.28;;;29.15;25.63
72024;BME280;59889;50.700;5.440;2022-09-02T05:03:40;99942.59;;;29.19;25.59
72024;BME280;59889;50.700;5.440;2022-09-02T05:06:06;99942.76;;;29.43;25.51
72024;BME280;59889;50.700;5.440;2022-09-02T05:08:30;99942.95;;;28.98;25.46
72024;BME280;59889;50.700;5.440;2022-09-02T05:10:54;99945.89;;;28.93;25.49
72024;BME280;59889;50.700;5.440;2022-09-02T05:13:19;99944.30;;;28.93;25.46
72024;BME280;59889;50.700;5.440;2022-09-02T05:15:45;99943.69;;;29.10;25.48
72024;BME280;59889;50.700;5.440;2022-09-02T05:18:09;99943.92;;;28.92;25.39
72024;BME280;59889;50.700;5.440;2022-09-02T05:20:36;99943.13;;;28.86;25.41
72024;BME280;59889;50.700;5.440;2022-09-02T05:22:59;99945.34;;;29.12;25.35
72024;BME280;59889;50.700;5.440;2022-09-02T05:25:24;99943.25;;;28.98;25.45
72024;BME280;59889;50.700;5.440;2022-09-02T05:27:49;99942.47;;;28.96;25.45
72024;BME280;59889;50.700;5.440;2022-09-02T05:30:14;99942.61;;;29.07;25.38
72024;BME280;59889;50.700;5.440;2022-09-02T05:32:40;99942.61;;;29.24;25.35
72024;BME280;59889;50.700;5.440;2022-09-02T05:35:05;99942.25;;;28.80;25.18
72024;BME280;59889;50.700;5.440;2022-09-02T05:37:31;99944.65;;;28.95;25.15
72024;BME280;59889;50.700;5.440;2022-09-02T05:39:55;99944.74;;;29.01;25.00
72024;BME280;59889;50.700;5.440;2022-09-02T05:42:20;99941.37;;;29.26;25.02
72024;BME280;59889;50.700;5.440;2022-09-02T05:44:45;99942.32;;;29.09;25.08
72024;BME280;59889;50.700;5.440;2022-09-02T05:47:10;99940.01;;;29.04;25.15
72024;BME280;59889;50.700;5.440;2022-09-02T05:49:35;99938.94;;;29.10;24.99
72024;BME280;59889;50.700;5.440;2022-09-02T05:52:00;99939.96;;;28.76;25.11
72024;BME280;59889;50.700;5.440;2022-09-02T05:54:27;99941.34;;;29.05;25.06
72024;BME280;59889;50.700;5.440;2022-09-02T05:56:51;99936.94;;;29.09;25.06
72024;BME280;59889;50.700;5.440;2022-09-02T05:59:15;99934.72;;;29.07;25.05
72024;BME280;59889;50.700;5.440;2022-09-02T06:01:40;99930.99;;;28.86;25.01
72024;BME280;59889;50.700;5.440;2022-09-02T06:04:05;99929.41;;;29.12;24.97
72024;BME280;59889;50.700;5.440;2022-09-02T06:06:30;99927.23;;;28.84;25.01
72024;BME280;59889;50.700;5.440;2022-09-02T06:08:55;99926.12;;;29.06;24.98
72024;BME280;59889;50.700;5.440;2022-09-02T06:11:20;99925.00;;;29.07;24.91
72024;BME280;59889;50.700;5.440;2022-09-02T06:13:45;99925.93;;;29.01;24.95
72024;BME280;59889;50.700;5.440;2022-09-02T06:16:12;99923.16;;;29.05;24.88
72024;BME280;59889;50.700;5.440;2022-09-02T06:18:35;99921.94;;;29.00;24.92
72024;BME280;59889;50.700;5.440;2022-09-02T06:21:02;99922.46;;;29.23;24.91
72024;BME280;59889;50.700;5.440;2022-09-02T06:23:25;99921.75;;;29.20;24.94
72024;BME280;59889;50.700;5.440;2022-09-02T06:25:50;99919.53;;;29.21;24.86
72024;BME280;59889;50.700;5.440;2022-09-02T06:28:16;99918.59;;;28.98;24.73
72024;BME280;59889;50.700;5.440;2022-09-02T06:30:42;99914.95;;;28.97;24.67
72024;BME280;59889;50.700;5.440;2022-09-02T06:33:05;99916.41;;;28.72;24.51
72024;BME280;59889;50.700;5.440;2022-09-02T06:35:31;99913.81;;;28.94;24.42
72024;BME280;59889;50.700;5.440;2022-09-02T06:37:55;99915.55;;;28.96;24.40
72024;BME280;59889;50.700;5.440;2022-09-02T06:40:20;99912.93;;;28.88;24.46
72024;BME280;59889;50.700;5.440;2022-09-02T06:42:45;99911.08;;;28.88;24.21
72024;BME280;59889;50.700;5.440;2022-09-02T06:45:10;99907.57;;;28.93;23.85
72024;BME280;59889;50.700;5.440;2022-09-02T06:47:35;99908.90;;;28.64;23.72
72024;BME280;59889;50.700;5.440;2022-09-02T06:50:00;99904.77;;;29.15;23.56
72024;BME280;59889;50.700;5.440;2022-09-02T06:52:25;99902.52;;;28.94;23.46
72024;BME280;59889;50.700;5.440;2022-09-02T06:54:50;99908.16;;;28.87;23.52
72024;BME280;59889;50.700;5.440;2022-09-02T06:57:15;99906.30;;;28.88;23.44
72024;BME280;59889;50.700;5.440;2022-09-02T06:59:40;99902.72;;;28.73;23.31
72024;BME280;59889;50.700;5.440;2022-09-02T07:02:06;99904.81;;;28.74;23.31
72024;BME280;59889;50.700;5.440;2022-09-02T07:04:30;99903.92;;;28.93;23.06
72024;BME280;59889;50.700;5.440;2022-09-02T07:06:56;99906.78;;;29.24;22.92
72024;BME280;59889;50.700;5.440;2022-09-02T07:09:23;99909.99;;;29.20;22.72
72024;BME280;59889;50.700;5.440;2022-09-02T07:11:46;99907.93;;;29.35;22.57
72024;BME280;59889;50.700;5.440;2022-09-02T07:14:10;99912.31;;;29.77;22.04
72024;BME280;59889;50.700;5.440;2022-09-02T07:16:41;99912.50;;;30.92;20.84
72024;BME280;59889;50.700;5.440;2022-09-02T07:19:01;99904.34;;;31.04;20.67
72024;BME280;59889;50.700;5.440;2022-09-02T07:21:26;99904.57;;;30.62;20.92
72024;BME280;59889;50.700;5.440;2022-09-02T07:23:51;99902.15;;;30.15;21.29
72024;BME280;59889;50.700;5.440;2022-09-02T07:26:17;99903.73;;;30.12;21.68
72024;BME280;59889;50.700;5.440;2022-09-02T07:28:43;99902.26;;;29.40;21.92
72024;BME280;59889;50.700;5.440;2022-09-02T07:31:09;99904.25;;;29.70;22.06
72024;BME280;59889;50.700;5.440;2022-09-02T07:33:35;99903.80;;;29.63;22.13
72024;BME280;59889;50.700;5.440;2022-09-02T07:36:01;99905.83;;;29.51;22.26
72024;BME280;59889;50.700;5.440;2022-09-02T07:38:26;99902.91;;;29.58;22.44
72024;BME280;59889;50.700;5.440;2022-09-02T07:40:52;99902.99;;;29.41;22.46
72024;BME280;59889;50.700;5.440;2022-09-02T07:43:17;99899.28;;;29.49;22.46
72024;BME280;59889;50.700;5.440;2022-09-02T07:45:42;99898.05;;;29.20;22.41
72024;BME280;59889;50.700;5.440;2022-09-02T07:48:07;99899.63;;;29.43;22.36
72024;BME280;59889;50.700;5.440;2022-09-02T07:50:33;99896.36;;;29.42;22.42
72024;BME280;59889;50.700;5.440;2022-09-02T07:52:57;99893.00;;;29.33;22.43
72024;BME280;59889;50.700;5.440;2022-09-02T07:55:23;99893.71;;;29.41;22.31
72024;BME280;59889;50.700;5.440;2022-09-02T07:57:47;99890.17;;;29.41;22.31
72024;BME280;59889;50.700;5.440;2022-09-02T08:00:13;99883.84;;;29.12;22.51
72024;BME280;59889;50.700;5.440;2022-09-02T08:02:37;99884.77;;;29.21;22.45
72024;BME280;59889;50.700;5.440;2022-09-02T08:05:03;99879.06;;;29.25;22.45
72024;BME280;59889;50.700;5.440;2022-09-02T08:07:27;99877.64;;;29.35;22.38
72024;BME280;59889;50.700;5.440;2022-09-02T08:09:52;99874.43;;;29.24;22.40
72024;BME280;59889;50.700;5.440;2022-09-02T08:12:17;99875.19;;;29.36;22.26
72024;BME280;59889;50.700;5.440;2022-09-02T08:14:42;99876.99;;;29.32;22.26
72024;BME280;59889;50.700;5.440;2022-09-02T08:17:07;99876.75;;;29.55;22.24
72024;BME280;59889;50.700;5.440;2022-09-02T08:19:32;99879.82;;;29.39;22.14
72024;BME280;59889;50.700;5.440;2022-09-02T08:22:02;99878.50;;;29.15;22.11
72024;BME280;59889;50.700;5.440;2022-09-02T08:24:22;99873.67;;;29.30;22.07
72024;BME280;59889;50.700;5.440;2022-09-02T08:26:47;99874.19;;;29.12;22.16
72024;BME280;59889;50.700;5.440;2022-09-02T08:29:13;99870.10;;;29.24;21.95
72024;BME280;59889;50.700;5.440;2022-09-02T08:31:38;99868.13;;;29.53;21.80
72024;BME280;59889;50.700;5.440;2022-09-02T08:34:03;99870.60;;;29.33;21.55
72024;BME280;59889;50.700;5.440;2022-09-02T08:36:28;99871.50;;;29.25;21.39
72024;BME280;59889;50.700;5.440;2022-09-02T08:38:53;99872.18;;;29.20;21.32
72024;BME280;59889;50.700;5.440;2022-09-02T08:41:21;99872.71;;;29.20;21.25
72024;BME280;59889;50.700;5.440;2022-09-02T08:43:43;99871.81;;;29.20;21.13
72024;BME280;59889;50.700;5.440;2022-09-02T08:46:10;99869.12;;;29.47;21.09
72024;BME280;59889;50.700;5.440;2022-09-02T08:48:36;99868.38;;;29.20;20.98
72024;BME280;59889;50.700;5.440;2022-09-02T08:51:02;99866.19;;;29.14;20.91
72024;BME280;59889;50.700;5.440;2022-09-02T08:53:27;99862.45;;;29.25;20.76
72024;BME280;59889;50.700;5.440;2022-09-02T08:55:51;99861.11;;;29.26;20.70
72024;BME280;59889;50.700;5.440;2022-09-02T08:58:17;99861.64;;;29.25;20.68
72024;BME280;59889;50.700;5.440;2022-09-02T09:00:40;99865.80;;;29.30;20.58
72024;BME280;59889;50.700;5.440;2022-09-02T09:03:11;99862.49;;;29.30;20.54
72024;BME280;59889;50.700;5.440;2022-09-02T09:05:37;99860.38;;;29.34;20.37
72024;BME280;59889;50.700;5.440;2022-09-02T09:08:00;99865.21;;;29.14;20.53
72024;BME280;59889;50.700;5.440;2022-09-02T09:10:23;99865.13;;;29.26;20.44
72024;BME280;59889;50.700;5.440;2022-09-02T09:12:59;99861.54;;;29.31;20.46
72024;BME280;59889;50.700;5.440;2022-09-02T09:15:11;99864.09;;;29.37;20.46
72024;BME280;59889;50.700;5.440;2022-09-02T09:17:38;99866.66;;;29.41;20.46
72024;BME280;59889;50.700;5.440;2022-09-02T09:20:01;99865.02;;;29.30;20.43
72024;BME280;59889;50.700;5.440;2022-09-02T09:22:28;99859.15;;;29.41;20.28
72024;BME280;59889;50.700;5.440;2022-09-02T09:24:49;99854.46;;;29.39;20.15
72024;BME280;59889;50.700;5.440;2022-09-02T09:27:16;99858.29;;;29.61;20.39
72024;BME280;59889;50.700;5.440;2022-09-02T09:29:38;99858.49;;;29.39;20.37
72024;BME280;59889;50.700;5.440;2022-09-02T09:32:07;99856.88;;;29.43;20.42
72024;BME280;59889;50.700;5.440;2022-09-02T09:36:55;99850.84;;;29.46;20.59
72024;BME280;59889;50.700;5.440;2022-09-02T09:39:22;99849.44;;;29.47;20.64
72024;BME280;59889;50.700;5.440;2022-09-02T09:41:44;99844.39;;;29.51;20.64
72024;BME280;59889;50.700;5.440;2022-09-02T09:44:08;99846.05;;;29.75;20.64
72024;BME280;59889;50.700;5.440;2022-09-02T09:46:33;99843.66;;;29.49;20.74
72024;BME280;59889;50.700;5.440;2022-09-02T09:48:59;99839.65;;;29.58;20.73
72024;BME280;59889;50.700;5.440;2022-09-02T09:51:24;99837.19;;;29.57;20.83
72024;BME280;59889;50.700;5.440;2022-09-02T09:53:49;99832.34;;;29.53;20.86
72024;BME280;59889;50.700;5.440;2022-09-02T09:56:22;99836.97;;;29.46;20.92
72024;BME280;59889;50.700;5.440;2022-09-02T09:58:43;99834.79;;;29.54;20.79
72024;BME280;59889;50.700;5.440;2022-09-02T10:01:10;99830.36;;;29.57;20.84
72024;BME280;59889;50.700;5.440;2022-09-02T10:03:29;99828.09;;;29.45;20.93
72024;BME280;59889;50.700;5.440;2022-09-02T10:05:55;99825.62;;;29.55;20.81
72024;BME280;59889;50.700;5.440;2022-09-02T10:08:21;99821.90;;;29.45;20.80
72024;BME280;59889;50.700;5.440;2022-09-02T10:10:55;99818.66;;;29.42;20.77
72024;BME280;59889;50.700;5.440;2022-09-02T10:13:19;99822.52;;;29.46;20.68
72024;BME280;59889;50.700;5.440;2022-09-02T10:15:46;99820.36;;;29.40;20.60
72024;BME280;59889;50.700;5.440;2022-09-02T10:18:07;99820.23;;;29.21;20.32
72024;BME280;59889;50.700;5.440;2022-09-02T10:20:31;99823.75;;;29.39;20.27
72024;BME280;59889;50.700;5.440;2022-09-02T10:23:01;99818.95;;;29.34;20.15
72024;BME280;59889;50.700;5.440;2022-09-02T10:25:21;99813.20;;;29.33;20.19
72024;BME280;59889;50.700;5.440;2022-09-02T10:27:48;99810.91;;;29.28;20.23
72024;BME280;59889;50.700;5.440;2022-09-02T10:30:07;99807.28;;;29.27;20.18
72024;BME280;59889;50.700;5.440;2022-09-02T10:32:41;99804.94;;;29.39;20.22
72024;BME280;59889;50.700;5.440;2022-09-02T10:35:03;99805.23;;;29.25;20.34
72024;BME280;59889;50.700;5.440;2022-09-02T10:37:22;99805.18;;;29.56;20.14
72024;BME280;59889;50.700;5.440;2022-09-02T10:40:01;99802.02;;;29.27;20.16
72024;BME280;59889;50.700;5.440;2022-09-02T10:42:15;99793.88;;;29.40;20.13
72024;BME280;59889;50.700;5.440;2022-09-02T10:44:40;99788.65;;;29.35;20.06
72024;BME280;59889;50.700;5.440;2022-09-02T10:47:02;99787.33;;;29.21;20.23
72024;BME280;59889;50.700;5.440;2022-09-02T10:49:36;99781.81;;;29.27;20.23
72024;BME280;59889;50.700;5.440;2022-09-02T10:51:56;99778.49;;;29.34;20.20
72024;BME280;59889;50.700;5.440;2022-09-02T10:54:26;99772.97;;;29.22;20.37
72024;BME280;59889;50.700;5.440;2022-09-02T10:56:44;99773.48;;;29.23;20.29
72024;BME280;59889;50.700;5.440;2022-09-02T10:59:09;99774.73;;;29.25;20.30
72024;BME280;59889;50.700;5.440;2022-09-02T11:01:33;99774.43;;;29.19;20.33
72024;BME280;59889;50.700;5.440;2022-09-02T11:04:02;99770.42;;;29.22;20.33
72024;BME280;59889;50.700;5.440;2022-09-02T11:06:23;99766.24;;;29.22;20.34
72024;BME280;59889;50.700;5.440;2022-09-02T11:08:48;99763.55;;;29.27;20.35
72024;BME280;59889;50.700;5.440;2022-09-02T11:11:13;99759.93;;;29.37;20.40
72024;BME280;59889;50.700;5.440;2022-09-02T11:13:40;99757.27;;;28.92;20.39
72024;BME280;59889;50.700;5.440;2022-09-02T11:16:02;99757.30;;;29.32;20.19
72024;BME280;59889;50.700;5.440;2022-09-02T11:18:30;99752.65;;;29.45;20.42
72024;BME280;59889;50.700;5.440;2022-09-02T11:20:54;99751.47;;;29.53;20.34
72024;BME280;59889;50.700;5.440;2022-09-02T11:23:21;99750.23;;;29.19;20.52
72024;BME280;59889;50.700;5.440;2022-09-02T11:25:45;99748.29;;;28.99;20.45
72024;BME280;59889;50.700;5.440;2022-09-02T11:28:12;99744.31;;;29.27;20.61
72024;BME280;59889;50.700;5.440;2022-09-02T11:30:44;99736.46;;;29.14;20.52
72024;BME280;59889;50.700;5.440;2022-09-02T11:32:58;99733.34;;;29.21;20.41
72024;BME280;59889;50.700;5.440;2022-09-02T11:35:22;99735.91;;;29.31;20.30
72024;BME280;59889;50.700;5.440;2022-09-02T11:37:48;99732.62;;;29.26;20.29
72024;BME280;59889;50.700;5.440;2022-09-02T11:40:13;99731.45;;;29.33;20.27
72024;BME280;59889;50.700;5.440;2022-09-02T11:42:49;99727.77;;;29.30;20.16
72024;BME280;59889;50.700;5.440;2022-09-02T11:45:14;99722.44;;;29.27;20.29
72024;BME280;59889;50.700;5.440;2022-09-02T11:47:39;99729.34;;;29.12;20.41
72024;BME280;59889;50.700;5.440;2022-09-02T11:50:03;99727.01;;;29.24;20.38
72024;BME280;59889;50.700;5.440;2022-09-02T11:52:23;99726.26;;;29.31;20.35
72024;BME280;59889;50.700;5.440;2022-09-02T11:54:43;99727.90;;;29.42;20.35
72024;BME280;59889;50.700;5.440;2022-09-02T11:57:05;99728.48;;;29.40;20.30
72024;BME280;59889;50.700;5.440;2022-09-02T12:01:55;99720.62;;;29.39;20.46
72024;BME280;59889;50.700;5.440;2022-09-02T12:04:22;99714.62;;;29.37;20.19
72024;BME280;59889;50.700;5.440;2022-09-02T12:09:10;99712.83;;;29.28;20.31
72024;BME280;59889;50.700;5.440;2022-09-02T12:11:39;99714.84;;;29.41;20.37
72024;BME280;59889;50.700;5.440;2022-09-02T12:14:00;99713.04;;;29.25;20.37
72024;BME280;59889;50.700;5.440;2022-09-02T12:16:36;99715.36;;;29.50;20.46
72024;BME280;59889;50.700;5.440;2022-09-02T12:21:16;99710.69;;;29.31;20.18
72024;BME280;59889;50.700;5.440;2022-09-02T12:26:05;99710.70;;;29.38;20.21
72024;BME280;59889;50.700;5.440;2022-09-02T12:28:30;99708.08;;;29.35;20.22
72024;BME280;59889;50.700;5.440;2022-09-02T12:31:08;99709.21;;;29.16;20.18
72024;BME280;59889;50.700;5.440;2022-09-02T12:33:28;99708.62;;;29.12;20.39
72024;BME280;59889;50.700;5.440;2022-09-02T12:35:52;99707.67;;;29.22;20.27
72024;BME280;59889;50.700;5.440;2022-09-02T12:38:26;99699.27;;;29.29;20.18
72024;BME280;59889;50.700;5.440;2022-09-02T12:40:39;99700.53;;;29.38;20.14
72024;BME280;59889;50.700;5.440;2022-09-02T12:43:05;99698.37;;;29.17;20.16
72024;BME280;59889;50.700;5.440;2022-09-02T12:45:26;99695.69;;;29.20;20.27
72024;BME280;59889;50.700;5.440;2022-09-02T12:47:57;99692.45;;;29.10;20.29
72024;BME280;59889;50.700;5.440;2022-09-02T12:50:24;99690.40;;;29.34;20.44
72024;BME280;59889;50.700;5.440;2022-09-02T12:52:44;99686.87;;;29.30;20.33
72024;BME280;59889;50.700;5.440;2022-09-02T12:55:09;99685.47;;;29.09;20.42
72024;BME280;59889;50.700;5.440;2022-09-02T12:57:37;99681.60;;;29.34;20.39
72024;BME280;59889;50.700;5.440;2022-09-02T12:59:58;99680.57;;;29.02;20.45